Time;durP1;ratioP1;P1;durP2;ratioP2;P2;SDS_P1;SDS_P2;PMS_P1;PMS_P2;Temp;Humidity;BMP_temperature;BMP_pressure;BME280_temperature;BME280_humidity;BME280_pressure;Samples;Min_cycle;Max_cycle;Signal;HPM_P1;HPM_P2
2022/02/11 00:05:50;;;;;;;6.60;3.20;;;;;;;3.72;70.98;98850.17;104429;1281;61128;-25
2022/02/11 00:08:15;;;;;;;4.00;2.90;;;;;;;3.53;71.66;98853.27;105071;1270;61094;-24
2022/02/11 00:10:43;;;;;;;3.70;2.80;;;;;;;3.76;71.53;98854.77;105169;1270;75026;-24
2022/02/11 00:13:12;;;;;;;5.30;2.60;;;;;;;4.25;69.79;98855.23;105182;1270;76037;-24
2022/02/11 00:15:44;;;;;;;5.50;3.30;;;;;;;4.31;69.43;98855.77;105343;1271;74415;-24
2022/02/11 00:18:14;;;;;;;5.20;3.40;;;;;;;4.30;69.25;98853.91;105291;1271;61045;-22
2022/02/11 00:20:47;;;;;;;5.60;3.70;;;;;;;4.05;69.76;98853.82;105068;1274;61786;-23
2022/02/11 00:23:16;;;;;;;;;;;;;;;3.90;70.25;98849.38;105160;1271;74535;-25
2022/02/11 00:25:51;;;;;;;4.90;3.50;;;;;;;3.69;70.78;98848.45;105171;1270;76074;-24
2022/02/11 00:33:55;;;;;;;3.90;2.50;;;;;;;4.23;69.87;98842.13;105213;1270;61087;-24
2022/02/11 00:36:31;;;;;;;6.20;2.80;;;;;;;4.32;69.30;98839.92;105226;1270;74872;-24
2022/02/11 00:42:56;;;;;;;5.50;3.70;;;;;;;3.87;70.28;98828.87;105273;1270;74570;-24
2022/02/11 01:04:08;;;;;;;3.30;2.30;;;;;;;3.41;72.33;98787.52;105022;1271;73873;-23
2022/02/11 01:06:38;;;;;;;3.50;2.70;;;;;;;3.38;72.34;98783.73;105320;1271;75690;-23
2022/02/11 01:09:09;;;;;;;5.00;3.10;;;;;;;3.64;72.15;98780.60;105302;1271;74412;-23
2022/02/11 01:11:50;;;;;;;3.60;2.70;;;;;;;4.05;70.89;98772.39;105131;1272;61659;-23
2022/02/11 01:14:20;;;;;;;5.60;4.00;;;;;;;4.10;70.10;98768.83;105176;1271;62081;-23
2022/02/11 01:16:56;;;;;;;4.20;3.20;;;;;;;3.93;70.66;98763.80;105159;1271;74758;-23
2022/02/11 01:22:07;;;;;;;4.60;2.90;;;;;;;3.66;71.28;98766.20;105257;1271;74449;-23
2022/02/11 01:32:38;;;;;;;3.80;2.80;;;;;;;4.09;70.28;98746.06;104815;1272;76111;-23
2022/02/11 01:38:35;;;;;;;5.90;3.90;;;;;;;3.82;71.11;98734.08;105117;1271;61163;-23
2022/02/11 01:54:04;;;;;;;7.50;4.40;;;;;;;4.22;69.97;98722.26;105014;1271;61124;-23
2022/02/11 01:57:36;;;;;;;7.90;4.70;;;;;;;4.00;70.74;98717.38;104848;1271;75524;-23
2022/02/11 02:10:14;;;;;;;4.70;3.10;;;;;;;4.25;69.76;98689.05;105091;1271;74918;-23
2022/02/11 02:57:44;;;;;;;4.90;3.10;;;;;;;3.54;72.15;98682.61;105159;1271;74375;-23
2022/02/11 03:00:12;;;;;;;4.10;2.60;;;;;;;3.88;72.01;98675.98;105327;1270;61143;-23
2022/02/11 03:17:27;;;;;;;5.20;3.30;;;;;;;3.59;72.36;98652.25;105353;1270;60984;-23
2022/02/11 03:56:29;;;;;;;5.00;3.70;;;;;;;4.13;70.46;98648.05;105037;1271;61562;-24
2022/02/11 04:27:13;;;;;;;7.30;4.80;;;;;;;4.85;69.07;98672.66;105280;1269;61801;-23
2022/02/11 04:56:58;;;;;;;10.10;5.50;;;;;;;4.72;68.88;98667.81;105117;1271;73148;-23
2022/02/11 04:59:39;;;;;;;10.50;5.70;;;;;;;4.60;69.26;98670.10;105123;1270;76042;-23
2022/02/11 05:02:08;;;;;;;9.60;5.70;;;;;;;4.39;70.03;98674.16;105113;1271;74468;-22
2022/02/11 05:04:36;;;;;;;9.50;6.10;;;;;;;4.25;70.46;98676.55;105044;1270;61107;-23
2022/02/11 05:07:04;;;;;;;9.90;5.60;;;;;;;4.09;71.17;98672.84;105112;1270;62267;-23
2022/02/11 05:09:33;;;;;;;7.10;4.30;;;;;;;4.02;71.56;98675.65;105130;1270;75573;-22
2022/02/11 05:12:03;;;;;;;12.40;5.70;;;;;;;4.53;70.42;98679.10;105145;1270;75937;-23
2022/02/11 05:14:32;;;;;;;8.80;6.00;;;;;;;4.88;68.82;98676.45;105135;1270;74259;-22
2022/02/11 05:17:00;;;;;;;11.70;6.60;;;;;;;4.91;68.64;98675.34;105114;1270;62234;-23
2022/02/11 05:19:31;;;;;;;16.50;6.00;;;;;;;4.79;68.78;98672.69;105049;1270;61010;-24
2022/02/11 05:22:00;;;;;;;6.90;4.40;;;;;;;4.59;69.53;98673.79;104839;1271;75324;-23
2022/02/11 05:24:28;;;;;;;8.90;5.20;;;;;;;4.41;70.24;98675.91;104883;1270;76215;-23
2022/02/11 05:26:57;;;;;;;9.70;6.30;;;;;;;4.24;70.79;98678.29;105148;1270;74374;-22
2022/02/11 05:29:25;;;;;;;10.40;6.10;;;;;;;4.10;71.44;98677.42;105124;1271;61081;-24
2022/02/11 05:31:54;;;;;;;8.00;4.50;;;;;;;3.96;72.11;98685.11;105112;1270;61126;-23
2022/02/11 05:34:26;;;;;;;8.30;5.50;;;;;;;4.43;70.96;98689.51;105160;1270;76209;-23
2022/02/11 05:36:55;;;;;;;8.70;5.40;;;;;;;4.86;69.22;98691.80;105126;1270;76046;-23
2022/02/11 05:39:23;;;;;;;10.50;5.50;;;;;;;4.90;68.94;98698.32;105125;1270;73583;-22
2022/02/11 05:41:51;;;;;;;9.90;5.70;;;;;;;4.78;69.36;98704.92;104824;1270;61120;-22
2022/02/11 05:44:20;;;;;;;10.30;6.40;;;;;;;4.57;70.12;98707.41;104904;1270;61164;-22
2022/02/11 05:46:50;;;;;;;12.20;6.50;;;;;;;4.37;70.84;98713.94;105151;1270;75011;-23
2022/02/11 05:49:18;;;;;;;9.00;5.50;;;;;;;4.18;71.61;98714.08;105145;1270;75131;-23
2022/02/11 05:51:47;;;;;;;10.00;5.50;;;;;;;4.05;72.07;98710.90;105165;1270;74388;-22
2022/02/11 05:54:15;;;;;;;9.50;6.20;;;;;;;3.92;72.55;98718.34;105135;1270;61035;-23
2022/02/11 05:56:43;;;;;;;8.50;4.70;;;;;;;3.84;73.02;98719.33;105083;1270;61190;-23
2022/02/11 05:59:11;;;;;;;9.90;6.00;;;;;;;4.29;72.14;98715.09;104892;1270;74287;-22
2022/02/11 06:01:39;;;;;;;9.60;6.60;;;;;;;4.82;70.03;98719.78;104855;1270;75175;-22
2022/02/11 06:04:08;;;;;;;8.90;5.60;;;;;;;4.90;69.53;98720.30;104911;1270;74591;-23
2022/02/11 06:06:36;;;;;;;12.00;6.30;;;;;;;4.79;69.82;98721.33;105007;1270;61778;-22
2022/02/11 06:09:04;;;;;;;11.40;6.20;;;;;;;4.59;70.50;98724.17;104838;1270;61141;-25
2022/02/11 06:11:33;;;;;;;11.80;6.80;;;;;;;4.38;71.27;98727.83;104884;1270;75584;-23
2022/02/11 06:14:01;;;;;;;11.30;6.40;;;;;;;4.21;71.97;98725.73;104905;1270;74856;-24
2022/02/11 06:16:30;;;;;;;9.10;6.70;;;;;;;4.05;72.78;98730.66;105040;1270;74735;-24
2022/02/11 06:19:00;;;;;;;12.60;5.30;;;;;;;3.94;72.99;98727.02;105135;1270;61170;-26
2022/02/11 06:21:29;;;;;;;12.40;6.00;;;;;;;4.13;72.99;98727.39;105129;1270;61841;-24
2022/02/11 06:23:57;;;;;;;10.30;6.00;;;;;;;4.71;71.05;98728.91;105066;1270;75439;-24
2022/02/11 06:26:26;;;;;;;9.10;5.20;;;;;;;4.79;70.58;98731.20;104845;1270;75789;-24
2022/02/11 06:28:57;;;;;;;10.90;6.30;;;;;;;4.71;70.68;98734.25;105027;1270;74419;-24
2022/02/11 06:31:27;;;;;;;10.60;6.90;;;;;;;4.54;71.16;98728.73;104753;1271;61110;-24
2022/02/11 06:33:56;;;;;;;11.40;6.90;;;;;;;4.38;71.98;98734.70;104980;1270;61365;-24
2022/02/11 06:36:24;;;;;;;7.40;5.00;;;;;;;4.24;72.52;98735.35;104930;1270;75492;-24
2022/02/11 06:38:52;;;;;;;11.30;7.20;;;;;;;4.11;73.16;98741.30;104984;1270;76040;-24
2022/02/11 06:41:21;;;;;;;6.90;4.40;;;;;;;4.04;73.81;98747.89;104889;1270;74276;-24
2022/02/11 06:43:49;;;;;;;7.00;5.00;;;;;;;4.49;72.66;98745.05;104952;1270;61072;-24
2022/02/11 06:46:20;;;;;;;8.40;5.50;;;;;;;4.85;71.21;98750.36;105135;1270;61131;-24
2022/02/11 06:48:49;;;;;;;10.00;6.50;;;;;;;4.83;71.02;98748.27;105139;1270;75697;-23
2022/02/11 06:51:17;;;;;;;10.50;6.70;;;;;;;4.73;71.74;98751.79;105286;1270;75946;-24
2022/02/11 06:53:46;;;;;;;9.30;6.20;;;;;;;4.57;72.26;98747.65;105270;1270;73331;-24
2022/02/11 06:56:14;;;;;;;10.00;5.90;;;;;;;4.38;73.27;98747.79;105037;1270;61119;-24
2022/02/11 06:58:44;;;;;;;10.10;6.60;;;;;;;4.22;74.14;98756.25;104931;1270;61954;-24
2022/02/11 07:01:13;;;;;;;9.60;5.50;;;;;;;4.10;74.94;98756.83;105010;1269;75272;-24
2022/02/11 07:03:42;;;;;;;9.80;6.00;;;;;;;4.52;73.91;98757.05;104933;1270;75841;-23
2022/02/11 07:06:10;;;;;;;8.20;5.50;;;;;;;4.89;72.66;98760.14;105089;1270;73009;-24
2022/02/11 07:08:40;;;;;;;9.40;5.60;;;;;;;4.91;72.67;98760.71;105330;1269;61192;-24
2022/02/11 07:11:09;;;;;;;7.90;4.50;;;;;;;4.82;73.12;98764.86;105119;1270;61690;-24
2022/02/11 07:13:39;;;;;;;10.40;6.30;;;;;;;4.60;74.11;98762.39;104935;1270;75563;-24
2022/02/11 07:16:08;;;;;;;11.20;6.00;;;;;;;4.42;75.21;98760.77;105050;1270;75775;-24
2022/02/11 07:18:36;;;;;;;13.40;5.10;;;;;;;4.28;76.29;98763.64;104937;1271;74150;-24
2022/02/11 07:21:05;;;;;;;8.00;5.10;;;;;;;4.20;77.08;98769.30;104983;1270;61721;-24
2022/02/11 07:23:34;;;;;;;9.20;5.20;;;;;;;4.59;76.00;98773.49;104956;1270;61701;-23
2022/02/11 07:26:02;;;;;;;11.30;6.00;;;;;;;5.02;74.50;98773.40;104921;1270;74768;-24
2022/02/11 07:28:31;;;;;;;11.20;5.90;;;;;;;5.07;74.17;98774.16;105286;1270;75017;-24
2022/02/11 07:31:01;;;;;;;15.30;7.50;;;;;;;4.86;75.04;98775.10;105109;1270;74432;-24
2022/02/11 07:33:33;;;;;;;;;;;;;;;4.65;75.94;98774.81;105299;1270;61060;-23
2022/02/11 07:36:01;;;;;;;9.80;5.30;;;;;;;4.47;76.89;98776.40;105181;1270;61039;-24
2022/02/11 07:38:32;;;;;;;8.80;4.70;;;;;;;4.40;77.65;98779.10;104927;1270;74335;-24
2022/02/11 07:41:00;;;;;;;7.60;4.80;;;;;;;4.57;77.53;98780.30;104993;1270;75587;-24
2022/02/11 07:43:29;;;;;;;11.50;7.30;;;;;;;5.01;76.12;98778.97;105218;1270;73501;-24
2022/02/11 07:46:09;;;;;;;12.00;7.00;;;;;;;4.96;76.43;98788.89;105260;1270;61133;-23
2022/02/11 07:48:38;;;;;;;12.70;7.80;;;;;;;4.85;76.96;98789.44;105324;1270;61109;-23
2022/02/11 07:51:06;;;;;;;10.80;6.00;;;;;;;4.66;77.88;98783.57;104940;1270;75378;-24
2022/02/11 07:53:42;;;;;;;13.20;7.40;;;;;;;4.43;78.74;98781.48;104932;1270;75060;-24
2022/02/11 07:56:11;;;;;;;9.60;6.10;;;;;;;4.48;79.20;98785.00;104908;1270;73676;-23
2022/02/11 07:58:39;;;;;;;12.80;8.60;;;;;;;4.92;77.63;98789.20;104957;1270;62096;-24
2022/02/11 08:01:08;;;;;;;15.00;8.30;;;;;;;5.04;77.20;98789.80;104998;1269;61026;-23
2022/02/11 08:03:37;;;;;;;8.40;5.70;;;;;;;4.87;77.54;98784.36;104953;1270;75482;-23
2022/02/11 08:06:05;;;;;;;15.70;10.00;;;;;;;4.72;78.10;98788.52;104966;1270;76031;-23
2022/02/11 08:08:34;;;;;;;19.00;8.70;;;;;;;4.56;78.72;98782.95;105064;1270;74394;-22
2022/02/11 08:11:03;;;;;;;13.80;9.00;;;;;;;4.46;79.39;98789.94;104978;1270;61911;-23
2022/02/11 08:13:33;;;;;;;14.60;9.80;;;;;;;4.91;77.54;98795.09;104934;1270;61028;-22
2022/02/11 08:16:04;;;;;;;14.70;8.30;;;;;;;4.99;77.21;98800.10;104929;1270;74560;-22
2022/02/11 08:18:33;;;;;;;19.70;10.10;;;;;;;4.98;76.96;98795.71;104940;1270;76060;-23
2022/02/11 08:21:14;;;;;;;13.10;7.10;;;;;;;4.82;77.76;98799.77;105130;1271;74186;-22
2022/02/11 08:23:43;;;;;;;17.40;9.10;;;;;;;4.59;78.55;98800.46;105099;1270;61150;-22
2022/02/11 08:26:11;;;;;;;16.50;8.90;;;;;;;4.53;79.24;98807.73;105270;1270;61170;-22
2022/02/11 08:28:40;;;;;;;10.30;7.30;;;;;;;4.95;77.85;98803.11;105153;1270;74577;-23
2022/02/11 08:31:08;;;;;;;11.80;7.20;;;;;;;5.06;76.99;98811.20;105270;1270;74377;-23
2022/02/11 08:33:37;;;;;;;8.60;6.20;;;;;;;5.07;77.17;98808.39;105264;1270;74349;-23
2022/02/11 08:36:05;;;;;;;13.20;5.80;;;;;;;5.09;76.70;98807.77;105285;1270;61057;-22
2022/02/11 08:38:34;;;;;;;13.60;7.60;;;;;;;4.98;77.21;98811.70;105049;1270;61913;-22
2022/02/11 08:41:02;;;;;;;9.80;6.60;;;;;;;4.79;77.90;98808.03;105027;1270;74692;-22
2022/02/11 08:43:30;;;;;;;12.60;7.70;;;;;;;4.84;77.80;98811.35;105345;1270;74735;-23
2022/02/11 08:46:00;;;;;;;16.40;8.90;;;;;;;5.26;76.52;98816.33;105311;1270;72689;-23
2022/02/11 08:48:32;;;;;;;14.20;8.90;;;;;;;5.41;75.43;98826.71;105121;1270;61189;-24
2022/02/11 08:51:01;;;;;;;12.10;7.20;;;;;;;5.18;76.64;98827.15;105141;1270;61210;-22
2022/02/11 08:53:33;;;;;;;17.70;10.70;;;;;;;4.95;77.54;98830.96;104937;1270;75480;-22
2022/02/11 08:56:05;;;;;;;13.30;7.90;;;;;;;4.94;77.72;98828.98;104803;1270;76245;-22
2022/02/11 08:58:36;;;;;;;7.80;5.10;;;;;;;4.96;77.74;98830.91;104812;1270;72954;-23
2022/02/11 09:01:05;;;;;;;15.50;9.50;;;;;;;5.32;76.72;98838.35;104846;1271;61080;-23
2022/02/11 09:03:36;;;;;;;16.70;9.70;;;;;;;5.44;76.41;98839.27;104952;1270;62403;-23
2022/02/11 09:06:06;;;;;;;14.30;8.50;;;;;;;5.51;75.42;98842.96;104947;1270;75522;-24
2022/02/11 09:08:40;;;;;;;10.60;7.40;;;;;;;5.41;76.50;98843.98;104954;1270;75877;-22
2022/02/11 09:11:09;;;;;;;11.90;7.40;;;;;;;5.23;76.90;98840.79;105308;1270;74406;-23
2022/02/11 09:13:37;;;;;;;13.70;8.60;;;;;;;5.28;77.30;98842.00;105103;1270;61186;-23
2022/02/11 09:16:06;;;;;;;14.20;9.60;;;;;;;5.45;77.21;98849.73;105068;1270;61109;-23
2022/02/11 09:18:36;;;;;;;13.70;8.60;;;;;;;5.63;76.02;98853.81;105260;1270;74460;-23
2022/02/11 09:21:04;;;;;;;14.80;9.30;;;;;;;5.76;76.00;98862.08;105270;1270;76063;-23
2022/02/11 09:23:34;;;;;;;11.60;7.90;;;;;;;5.66;75.86;98862.91;105292;1270;74370;-23
2022/02/11 09:26:02;;;;;;;14.70;8.10;;;;;;;5.31;76.55;98865.90;104886;1270;61324;-23
2022/02/11 09:28:31;;;;;;;11.30;6.60;;;;;;;5.19;77.37;98862.18;105230;1270;61127;-23
2022/02/11 09:31:00;;;;;;;13.80;7.60;;;;;;;5.07;77.39;98862.92;105243;1270;73816;-23
2022/02/11 09:33:28;;;;;;;16.10;10.10;;;;;;;5.44;76.75;98868.89;105370;1270;75776;-23
2022/02/11 09:35:57;;;;;;;14.70;9.20;;;;;;;5.60;75.49;98870.64;105114;1270;73046;-22
2022/02/11 09:38:25;;;;;;;15.70;8.70;;;;;;;5.80;75.10;98872.48;105305;1270;61144;-21
2022/02/11 09:40:54;;;;;;;14.70;8.50;;;;;;;5.60;75.35;98877.56;105306;1270;61007;-22
2022/02/11 09:43:24;;;;;;;17.10;9.70;;;;;;;5.43;75.99;98877.59;105291;1270;75487;-22
2022/02/11 09:45:53;;;;;;;14.70;8.40;;;;;;;5.47;76.32;98884.59;105088;1270;76450;-22
2022/02/11 09:48:20;;;;;;;9.20;6.60;;;;;;;5.24;76.71;98884.40;105098;1271;74251;-22
2022/02/11 09:50:49;;;;;;;10.10;6.30;;;;;;;5.61;75.55;98885.04;105329;1270;61098;-22
2022/02/11 09:53:18;;;;;;;16.70;9.80;;;;;;;5.97;74.13;98888.27;105161;1270;62231;-22
2022/02/11 09:55:47;;;;;;;12.20;7.10;;;;;;;6.01;74.55;98890.64;105131;1269;75652;-22
2022/02/11 09:58:19;;;;;;;16.20;11.00;;;;;;;5.94;74.66;98891.59;105254;1271;72949;-22
2022/02/11 10:00:49;;;;;;;16.20;9.90;;;;;;;5.73;74.85;98891.33;105310;1270;71841;-22
2022/02/11 10:03:23;;;;;;;13.70;9.10;;;;;;;5.68;74.28;98883.41;105196;1270;62079;-22
2022/02/11 10:05:59;;;;;;;14.80;9.30;;;;;;;5.46;75.50;98886.01;105149;1270;62215;-22
2022/02/11 10:08:29;;;;;;;14.30;9.00;;;;;;;5.52;75.48;98882.17;105249;1270;74404;-22
2022/02/11 10:10:58;;;;;;;11.40;5.90;;;;;;;6.00;74.06;98886.90;105143;1270;74937;-22
2022/02/11 10:13:31;;;;;;;14.90;9.20;;;;;;;6.27;72.64;98888.77;105048;1270;74532;-22
2022/02/11 10:16:10;;;;;;;15.50;9.30;;;;;;;6.17;72.47;98892.06;105009;1270;62140;-23
2022/02/11 10:18:41;;;;;;;15.60;9.00;;;;;;;6.13;72.99;98882.80;104990;1270;61995;-23
2022/02/11 10:21:21;;;;;;;14.50;9.40;;;;;;;6.21;72.05;98883.65;104982;1271;72984;-24
2022/02/11 10:23:54;;;;;;;16.30;10.20;;;;;;;6.60;71.52;98886.09;105107;1271;75760;-23
2022/02/11 10:26:24;;;;;;;15.10;9.20;;;;;;;6.73;70.81;98875.21;105274;1270;74426;-23
2022/02/11 10:28:55;;;;;;;15.90;9.60;;;;;;;7.04;70.55;98881.73;105264;1270;61122;-23
2022/02/11 10:31:26;;;;;;;14.00;9.20;;;;;;;7.08;69.26;98884.75;105266;1270;61265;-23
2022/02/11 10:34:08;;;;;;;15.60;9.10;;;;;;;7.09;69.98;98888.48;104889;1271;74579;-23
2022/02/11 10:36:38;;;;;;;11.40;7.10;;;;;;;6.71;69.96;98881.57;104951;1270;75737;-23
2022/02/11 10:39:27;;;;;;;15.90;8.80;;;;;;;6.91;70.32;98884.16;104948;1271;74530;-23
2022/02/11 10:41:58;;;;;;;15.00;9.60;;;;;;;6.64;70.79;98884.27;104995;1271;62415;-23
2022/02/11 10:44:29;;;;;;;19.70;10.90;;;;;;;6.17;71.79;98883.42;104811;1270;61193;-23
2022/02/11 10:47:19;;;;;;;14.10;9.30;;;;;;;6.20;71.95;98890.26;104765;1270;75601;-23
2022/02/11 10:49:48;;;;;;;12.60;7.30;;;;;;;6.59;71.75;98886.70;104953;1270;75972;-23
2022/02/11 10:52:24;;;;;;;13.90;8.00;;;;;;;6.52;71.62;98886.98;104990;1270;74743;-23
2022/02/11 10:54:54;;;;;;;10.30;7.60;;;;;;;6.49;70.65;98873.93;104794;1270;61133;-23
2022/02/11 10:57:26;;;;;;;15.40;8.80;;;;;;;6.49;71.36;98886.95;104970;1270;61009;-23
2022/02/11 10:59:55;;;;;;;11.40;7.00;;;;;;;6.61;71.51;98878.41;104920;1271;75594;-23
2022/02/11 11:02:24;;;;;;;14.80;8.50;;;;;;;7.31;69.77;98883.13;104999;1270;73592;-23
2022/02/11 11:04:55;;;;;;;13.40;8.50;;;;;;;7.96;67.24;98877.33;105003;1270;72763;-23
2022/02/11 11:07:29;;;;;;;15.00;10.00;;;;;;;7.59;67.13;98877.71;104928;1270;61166;-23
2022/02/11 11:10:17;;;;;;;11.30;6.80;;;;;;;7.67;66.73;98877.52;104831;1270;61780;-21
2022/02/11 11:12:54;;;;;;;12.50;7.90;;;;;;;7.25;67.91;98872.85;104961;1270;75466;-22
2022/02/11 11:15:23;;;;;;;11.30;8.10;;;;;;;7.14;68.75;98874.85;105149;1270;75098;-22
2022/02/11 11:17:52;;;;;;;10.40;6.40;;;;;;;7.31;67.77;98870.55;105240;1270;74494;-23
2022/02/11 11:20:22;;;;;;;9.80;7.30;;;;;;;6.79;67.99;98880.16;105317;1270;62044;-22
2022/02/11 11:22:59;;;;;;;8.60;5.30;;;;;;;5.97;69.35;98883.13;104832;1270;61094;-22
2022/02/11 11:26:02;;;;;;;5.60;4.00;;;;;;;5.82;67.32;98886.69;104793;1270;74956;-22
2022/02/11 11:28:37;;;;;;;4.90;3.00;;;;;;;5.37;67.35;98880.00;105152;1271;76289;-22
2022/02/11 11:31:22;;;;;;;5.30;2.50;;;;;;;5.30;67.26;98888.34;105285;1270;72891;-22
2022/02/11 11:33:52;;;;;;;5.20;2.80;;;;;;;5.32;68.01;98887.71;105163;1270;61153;-22
2022/02/11 11:36:21;;;;;;;4.30;2.70;;;;;;;5.29;68.33;98881.85;105265;1270;61108;-22
2022/02/11 11:39:01;;;;;;;2.90;2.20;;;;;;;5.17;68.04;98876.58;105314;1270;75438;-22
2022/02/11 11:41:33;;;;;;;4.30;2.60;;;;;;;5.21;67.86;98878.27;105351;1270;74615;-22
2022/02/11 11:44:27;;;;;;;3.50;2.20;;;;;;;5.07;67.18;98878.06;105328;1270;73014;-22
2022/02/11 11:47:00;;;;;;;2.70;1.60;;;;;;;5.19;67.83;98874.73;104837;1270;61708;-22
2022/02/11 11:49:41;;;;;;;2.70;1.70;;;;;;;5.20;67.71;98868.88;104552;1270;354545;-23
2022/02/11 11:52:10;;;;;;;2.30;1.40;;;;;;;5.10;67.58;98865.34;104907;1270;75594;-22
2022/02/11 11:54:39;;;;;;;2.60;1.50;;;;;;;5.62;67.34;98872.95;105025;1270;75970;-22
2022/02/11 11:57:14;;;;;;;3.10;1.60;;;;;;;6.02;65.08;98874.02;104945;1270;74346;-22
2022/02/11 11:59:56;;;;;;;1.90;1.20;;;;;;;5.69;64.90;98872.34;105088;1270;61073;-22
2022/02/11 12:02:27;;;;;;;1.50;1.00;;;;;;;5.73;64.73;98881.39;105255;1270;62485;-22
2022/02/11 12:04:59;;;;;;;2.40;1.40;;;;;;;5.70;65.18;98877.59;105171;1270;75030;-22
2022/02/11 12:07:36;;;;;;;3.60;1.70;;;;;;;5.71;64.25;98880.80;105176;1270;75060;-22
2022/02/11 12:10:06;;;;;;;2.60;1.60;;;;;;;5.46;65.38;98882.42;105135;1270;72860;-22
2022/02/11 12:12:49;;;;;;;1.50;1.10;;;;;;;5.17;66.83;98886.77;105141;1270;61062;-22
2022/02/11 12:15:18;;;;;;;1.80;1.30;;;;;;;5.09;67.40;98882.40;104880;1270;61143;-23
2022/02/11 12:17:49;;;;;;;1.90;1.40;;;;;;;5.12;66.98;98886.54;105036;1270;75608;-23
2022/02/11 12:20:18;;;;;;;2.00;1.20;;;;;;;5.12;67.23;98882.05;105151;1271;74944;-23
2022/02/11 12:27:20;;;;;;;1.80;1.20;;;;;;;5.12;67.61;98877.41;105290;1270;74291;-22
2022/02/11 12:28:23;;;;;;;1.80;1.20;;;;;;;5.41;67.59;98880.44;105232;1271;62009;-22
2022/02/11 12:30:52;;;;;;;3.80;1.50;;;;;;;5.70;66.48;98874.83;105339;1270;74534;-22
2022/02/11 12:33:21;;;;;;;2.30;1.40;;;;;;;6.24;64.28;98871.76;105143;1271;76006;-22
2022/02/11 12:35:51;;;;;;;1.50;1.10;;;;;;;6.28;64.85;98868.36;105062;1270;73471;-22
2022/02/11 12:38:20;;;;;;;3.10;1.40;;;;;;;6.58;64.10;98871.94;105308;1270;61160;-22
2022/02/11 12:40:53;;;;;;;1.60;1.10;;;;;;;6.67;64.22;98874.23;105164;1270;61191;-23
2022/02/11 12:43:25;;;;;;;7.60;1.70;;;;;;;6.81;63.09;98876.54;105129;1270;72823;-22
2022/02/11 12:45:54;;;;;;;2.10;1.50;;;;;;;6.86;63.00;98872.77;105258;1270;74459;-22
2022/02/11 12:48:29;;;;;;;2.60;1.50;;;;;;;6.73;62.63;98876.80;105005;1270;74254;-22
2022/02/11 12:50:57;;;;;;;2.20;1.30;;;;;;;6.69;63.88;98878.40;104907;1272;61272;-22
2022/02/11 12:53:28;;;;;;;2.50;1.30;;;;;;;6.36;64.00;98880.44;105347;1270;61925;-22
2022/02/11 12:55:58;;;;;;;3.30;1.50;;;;;;;6.10;64.97;98882.49;105082;1270;75206;-23
2022/02/11 12:58:26;;;;;;;3.00;1.70;;;;;;;5.87;64.68;98880.98;105307;1270;76185;-22
2022/02/11 13:00:55;;;;;;;1.50;1.00;;;;;;;5.48;65.17;98883.42;105243;1270;74870;-22
2022/02/11 13:03:24;;;;;;;1.90;1.30;;;;;;;5.36;65.67;98883.35;104881;1271;61347;-22
2022/02/11 13:05:52;;;;;;;2.80;1.50;;;;;;;5.28;66.22;98891.64;104969;1270;61092;-23
2022/02/11 13:08:26;;;;;;;3.50;1.60;;;;;;;5.16;66.70;98889.58;105147;1270;74043;-22
2022/02/11 13:11:02;;;;;;;1.50;1.20;;;;;;;5.05;67.40;98889.73;104810;1270;73755;-22
2022/02/11 13:13:30;;;;;;;2.80;1.50;;;;;;;4.97;67.05;98891.75;104962;1270;74538;-25
2022/02/11 13:16:03;;;;;;;2.30;1.20;;;;;;;4.98;67.34;98893.23;105167;1271;61138;-23
2022/02/11 13:18:34;;;;;;;1.90;1.30;;;;;;;4.99;66.49;98887.14;104907;1273;62501;-23
2022/02/11 13:21:05;;;;;;;1.70;1.20;;;;;;;4.94;66.84;98888.14;105356;1268;74328;-23
2022/02/11 13:23:33;;;;;;;3.40;1.10;;;;;;;4.92;67.95;98892.55;104833;1270;76141;-23
2022/02/11 13:26:06;;;;;;;1.10;0.70;;;;;;;4.93;67.17;98897.34;105232;1270;74220;-23
2022/02/11 13:28:53;;;;;;;1.20;0.90;;;;;;;5.38;65.36;98899.44;105123;1271;62325;-23
2022/02/11 13:31:22;;;;;;;2.30;1.10;;;;;;;5.70;63.91;98905.84;105149;1270;61086;-23
2022/02/11 13:34:11;;;;;;;1.40;1.10;;;;;;;5.84;64.16;98911.02;105266;1270;74442;-23
2022/02/11 13:36:45;;;;;;;1.80;1.00;;;;;;;5.70;64.55;98905.66;105254;1270;75474;-23
2022/02/11 13:39:28;;;;;;;2.10;1.10;;;;;;;5.73;65.11;98905.17;105226;1270;74601;-23
2022/02/11 13:41:56;;;;;;;2.00;1.30;;;;;;;5.43;65.47;98897.74;105102;1270;61397;-23
2022/02/11 13:44:36;;;;;;;1.60;1.10;;;;;;;5.31;66.31;98896.05;105136;1270;61100;-23
2022/02/11 13:47:08;;;;;;;1.90;1.30;;;;;;;5.17;66.00;98896.08;105258;1270;75462;-23
2022/02/11 13:49:37;;;;;;;1.40;0.90;;;;;;;5.06;66.57;98897.42;105131;1270;76015;-23
2022/02/11 13:55:06;;;;;;;1.30;0.80;;;;;;;5.00;67.08;98898.45;105163;1270;61166;-23
2022/02/11 13:57:35;;;;;;;3.20;1.50;;;;;;;4.87;67.33;98896.31;105255;1270;60947;-23
2022/02/11 14:00:36;;;;;;;2.00;1.00;;;;;;;4.77;67.80;98895.38;105129;1270;75807;-23
2022/02/11 14:03:05;;;;;;;1.60;1.00;;;;;;;4.73;67.08;98895.08;105247;1270;74802;-23
2022/02/11 14:05:43;;;;;;;4.60;1.30;;;;;;;4.67;67.70;98897.48;105065;1270;74414;-23
2022/02/11 14:08:14;;;;;;;3.10;1.30;;;;;;;4.77;68.16;98898.30;104969;1271;61412;-23
2022/02/11 14:10:43;;;;;;;2.50;1.30;;;;;;;5.40;66.36;98901.86;105251;1270;61588;-23
2022/02/11 14:13:12;;;;;;;2.50;1.00;;;;;;;5.86;64.61;98908.60;105021;1271;75558;-22
2022/02/11 14:15:41;;;;;;;1.40;0.90;;;;;;;5.94;64.19;98907.95;104945;1270;76509;-22
2022/02/11 14:18:10;;;;;;;1.10;0.80;;;;;;;6.01;64.68;98910.48;105093;1270;72566;-22
2022/02/11 14:20:54;;;;;;;1.80;0.80;;;;;;;5.84;64.73;98912.71;104899;1270;61227;-22
2022/02/11 14:23:23;;;;;;;8.80;1.20;;;;;;;5.70;65.08;98911.17;104933;1269;61181;-22
2022/02/11 14:25:51;;;;;;;1.60;0.90;;;;;;;5.39;65.02;98912.93;104980;1270;74504;-22
2022/02/11 14:28:23;;;;;;;1.50;0.90;;;;;;;5.37;65.65;98921.48;105048;1270;74982;-23
2022/02/11 14:30:53;;;;;;;1.50;0.80;;;;;;;5.29;65.87;98924.91;104938;1270;74200;-24
2022/02/11 14:33:35;;;;;;;12.20;1.00;;;;;;;5.21;66.28;98926.77;104929;1270;61109;-23
2022/02/11 14:36:04;;;;;;;0.90;0.80;;;;;;;5.16;66.30;98928.98;105152;1270;62001;-24
2022/02/11 14:38:33;;;;;;;2.40;1.10;;;;;;;5.09;66.70;98928.73;105152;1271;75371;-23
2022/02/11 14:43:49;;;;;;;1.20;0.90;;;;;;;4.89;66.75;98927.34;105221;1271;73909;-24
2022/02/11 14:46:17;;;;;;;1.00;0.80;;;;;;;4.80;67.25;98924.92;105349;1271;61260;-24
2022/02/11 14:48:46;;;;;;;1.60;0.80;;;;;;;4.72;67.50;98924.54;105339;1270;61044;-24
2022/02/11 14:51:14;;;;;;;3.30;0.80;;;;;;;4.61;67.56;98922.08;104982;1271;75280;-23
2022/02/11 14:53:43;;;;;;;1.20;0.70;;;;;;;4.60;67.65;98928.86;104957;1271;76327;-23
2022/02/11 14:56:11;;;;;;;1.60;0.90;;;;;;;5.13;67.09;98926.91;104978;1271;72208;-23
2022/02/11 14:58:43;;;;;;;2.10;1.00;;;;;;;5.81;64.73;98927.74;104970;1271;62427;-23
2022/02/11 15:01:11;;;;;;;0.80;0.70;;;;;;;5.96;63.92;98929.70;104938;1271;62087;-23
2022/02/11 15:03:40;;;;;;;2.50;1.00;;;;;;;5.83;64.23;98934.33;104968;1270;74658;-23
2022/02/11 15:06:09;;;;;;;1.80;0.90;;;;;;;5.61;64.67;98933.27;105023;1270;75718;-24
2022/02/11 15:08:37;;;;;;;1.40;0.80;;;;;;;5.38;65.35;98926.93;104905;1271;72612;-22
2022/02/11 15:11:06;;;;;;;2.00;1.10;;;;;;;5.14;65.95;98930.80;104952;1271;61097;-22
2022/02/11 15:13:34;;;;;;;1.10;0.90;;;;;;;4.94;66.58;98928.42;105002;1271;61133;-22
2022/02/11 15:16:22;;;;;;;2.40;1.20;;;;;;;4.71;67.22;98927.20;105094;1271;76683;-22
2022/02/11 15:19:11;;;;;;;2.70;1.20;;;;;;;4.56;67.56;98928.23;104906;1271;77304;-22
2022/02/11 15:21:39;;;;;;;1.70;1.00;;;;;;;4.41;68.14;98925.47;104990;1271;72852;-22
2022/02/11 15:24:08;;;;;;;1.60;0.90;;;;;;;4.26;68.72;98930.65;105127;1271;61502;-22
2022/02/11 15:26:36;;;;;;;1.90;0.90;;;;;;;4.15;68.87;98934.67;104954;1271;61312;-22
2022/02/11 15:29:05;;;;;;;3.30;0.90;;;;;;;4.05;69.28;98939.70;104926;1271;75180;-22
2022/02/11 15:31:33;;;;;;;1.30;0.60;;;;;;;3.98;69.77;98938.03;105012;1271;76013;-23
2022/02/11 15:34:04;;;;;;;1.10;0.80;;;;;;;4.45;69.02;98934.86;104944;1269;74112;-22
2022/02/11 15:36:33;;;;;;;1.20;1.00;;;;;;;5.12;66.95;98939.38;105338;1271;61146;-22
2022/02/11 15:39:02;;;;;;;1.90;1.10;;;;;;;5.12;66.66;98942.79;105427;1271;61169;-22